Time;durP1;ratioP1;P1;durP2;ratioP2;P2;SDS_P1;SDS_P2;PMS_P1;PMS_P2;Temp;Humidity;BMP_temperature;BMP_pressure;BME280_temperature;BME280_humidity;BME280_pressure;Samples;Min_cycle;Max_cycle;Signal;HPM_P1;HPM_P2
2022/06/28 00:01:04;;;;;;;12.95;0.90;;;21.10;99.40;;;;;;4144032;28;20049;-48
2022/06/28 00:03:25;;;;;;;9.13;0.80;;;21.10;99.40;;;;;;4143985;28;20417;-48
2022/06/28 00:05:46;;;;;;;12.32;1.15;;;21.00;99.80;;;;;;4144314;28;20053;-47
2022/06/28 00:08:06;;;;;;;6.97;1.17;;;20.90;99.90;;;;;;4148584;28;20060;-48
2022/06/28 00:10:27;;;;;;;15.90;1.25;;;20.90;99.90;;;;;;4144180;28;20053;-48
2022/06/28 00:12:48;;;;;;;14.43;2.30;;;21.00;99.90;;;;;;4144272;28;20056;-48
2022/06/28 00:17:50;;;;;;;14.20;1.52;;;20.50;99.90;;;;;;4145661;28;20057;-50
2022/06/28 00:20:12;;;;;;;7.70;1.20;;;20.50;99.90;;;;;;4143971;28;20080;-48
2022/06/28 00:22:32;;;;;;;9.75;1.20;;;20.70;99.90;;;;;;4143959;28;20145;-50
2022/06/28 00:24:53;;;;;;;4.28;1.30;;;20.70;99.90;;;;;;4143985;28;20095;-47
2022/06/28 00:27:13;;;;;;;8.13;1.80;;;20.70;99.90;;;;;;4147089;28;20108;-50
2022/06/28 00:29:34;;;;;;;8.80;1.10;;;20.40;99.90;;;;;;4146866;28;20052;-49
2022/06/28 00:31:54;;;;;;;14.88;1.58;;;20.20;99.90;;;;;;4147141;28;20144;-50
2022/06/28 00:34:15;;;;;;;9.38;1.45;;;20.10;99.90;;;;;;4146744;28;20472;-50
2022/06/28 00:36:36;;;;;;;11.40;1.15;;;20.20;99.90;;;;;;4150339;28;20063;-49
2022/06/28 00:38:56;;;;;;;12.48;1.25;;;20.30;99.90;;;;;;4163031;28;20441;-47
2022/06/28 00:41:19;;;;;;;12.73;1.50;;;20.40;99.90;;;;;;4147583;28;20570;-47
2022/06/28 00:43:40;;;;;;;9.60;1.77;;;20.40;99.90;;;;;;4154225;28;20052;-50
2022/06/28 00:46:02;;;;;;;14.73;1.60;;;20.30;99.90;;;;;;4161087;28;20111;-49
2022/06/28 00:48:26;;;;;;;9.37;1.40;;;20.20;99.90;;;;;;4146858;28;20064;-49
2022/06/28 00:50:46;;;;;;;9.70;1.70;;;20.10;99.90;;;;;;4160237;28;20385;-50
2022/06/28 00:53:11;;;;;;;10.95;1.15;;;20.10;99.90;;;;;;4154858;28;20394;-49
2022/06/28 00:55:32;;;;;;;11.43;1.48;;;20.10;99.90;;;;;;4146379;28;20575;-48
2022/06/28 00:57:53;;;;;;;18.58;1.63;;;20.10;99.90;;;;;;4145616;28;20129;-47
2022/06/28 01:00:14;;;;;;;11.20;1.77;;;20.00;99.90;;;;;;4146020;28;20551;-47
2022/06/28 01:02:35;;;;;;;13.65;2.15;;;19.80;99.90;;;;;;4146373;28;20064;-47
2022/06/28 01:04:56;;;;;;;14.20;1.92;;;19.70;99.90;;;;;;4147032;28;20053;-47
2022/06/28 01:07:17;;;;;;;6.05;1.05;;;19.70;99.90;;;;;;4149885;28;20099;-47
2022/06/28 01:09:37;;;;;;;10.27;1.65;;;19.70;99.90;;;;;;4150070;28;20060;-47
2022/06/28 01:11:58;;;;;;;8.57;1.48;;;19.80;99.90;;;;;;4151338;28;20116;-47
2022/06/28 01:14:18;;;;;;;9.77;1.00;;;19.90;99.90;;;;;;4146281;28;20417;-50
2022/06/28 01:16:39;;;;;;;10.63;1.00;;;19.90;99.90;;;;;;4146349;28;20420;-48
2022/06/28 01:19:00;;;;;;;8.02;1.15;;;20.00;99.90;;;;;;4146144;28;20049;-48
2022/06/28 01:21:23;;;;;;;11.48;1.20;;;20.00;99.90;;;;;;4146059;28;20056;-49
2022/06/28 01:23:45;;;;;;;12.05;1.55;;;19.90;99.90;;;;;;4146446;28;20136;-46
2022/06/28 01:26:06;;;;;;;9.82;1.33;;;19.80;99.90;;;;;;4145936;28;20417;-49
2022/06/28 01:28:28;;;;;;;10.32;1.20;;;19.70;99.90;;;;;;4145918;28;20083;-50
2022/06/28 01:30:50;;;;;;;7.22;1.38;;;19.50;99.90;;;;;;4145552;28;20130;-47
2022/06/28 01:33:10;;;;;;;8.52;1.50;;;19.40;99.90;;;;;;4152005;28;20048;-47
2022/06/28 01:35:31;;;;;;;9.00;1.30;;;19.50;99.90;;;;;;4146518;28;20098;-50
2022/06/28 01:37:52;;;;;;;7.43;1.40;;;19.50;99.90;;;;;;4145025;28;20145;-48
2022/06/28 01:40:12;;;;;;;9.48;1.67;;;19.50;99.90;;;;;;4146103;28;20528;-49
2022/06/28 01:42:34;;;;;;;6.57;2.28;;;19.50;99.90;;;;;;4145943;28;20429;-47
2022/06/28 01:44:56;;;;;;;8.07;1.67;;;19.30;99.90;;;;;;4145900;28;20081;-48
2022/06/28 01:47:19;;;;;;;10.13;1.13;;;19.10;99.90;;;;;;4153378;28;20156;-49
2022/06/28 01:49:40;;;;;;;15.27;1.83;;;19.20;99.90;;;;;;4160834;28;20578;-47
2022/06/28 01:52:01;;;;;;;11.10;1.83;;;19.10;99.90;;;;;;4145572;28;20530;-49
2022/06/28 01:54:22;;;;;;;14.07;1.42;;;19.10;99.90;;;;;;4145887;28;20053;-48
2022/06/28 01:56:43;;;;;;;18.67;2.53;;;19.00;99.90;;;;;;4145556;28;20053;-47
2022/06/28 01:59:03;;;;;;;12.85;1.73;;;18.90;99.90;;;;;;4145787;28;20574;-46
2022/06/28 02:01:24;;;;;;;16.52;2.38;;;18.80;99.90;;;;;;4145586;28;20056;-47
2022/06/28 02:03:45;;;;;;;8.52;2.10;;;18.60;99.90;;;;;;4145434;28;20465;-48
2022/06/28 02:06:06;;;;;;;6.18;2.10;;;18.40;99.90;;;;;;4145346;28;20056;-50
2022/06/28 02:08:27;;;;;;;10.85;2.60;;;18.50;99.90;;;;;;4158050;28;20068;-50
2022/06/28 02:10:47;;;;;;;10.45;1.92;;;18.30;99.90;;;;;;4146733;28;20049;-49
2022/06/28 02:13:08;;;;;;;14.68;2.92;;;18.40;99.90;;;;;;4151470;28;20262;-47
2022/06/28 02:15:29;;;;;;;8.48;1.30;;;18.50;99.90;;;;;;4145589;28;20053;-48
2022/06/28 02:17:50;;;;;;;6.72;1.83;;;18.40;99.90;;;;;;4153662;28;20143;-49
2022/06/28 02:20:12;;;;;;;6.38;1.25;;;18.40;99.90;;;;;;4145765;28;20061;-49
2022/06/28 02:22:33;;;;;;;7.27;1.20;;;18.30;99.90;;;;;;4145318;28;20445;-47
2022/06/28 02:24:53;;;;;;;10.52;1.65;;;18.50;99.90;;;;;;4145652;28;20108;-47
2022/06/28 02:27:14;;;;;;;12.70;1.70;;;18.60;99.90;;;;;;4145205;28;20544;-47
2022/06/28 02:29:35;;;;;;;16.02;1.40;;;18.40;99.90;;;;;;4152363;28;20572;-48
2022/06/28 02:31:56;;;;;;;8.52;2.42;;;18.30;99.90;;;;;;4153313;28;20044;-46
2022/06/28 02:42:15;;;;;;;11.48;1.92;;;18.60;99.90;;;;;;4144996;28;20104;-47
2022/06/28 02:44:36;;;;;;;14.55;2.30;;;18.50;99.90;;;;;;4153308;28;20573;-48
2022/06/28 02:46:56;;;;;;;12.63;2.67;;;18.50;99.90;;;;;;4145231;28;20522;-49
2022/06/28 02:49:17;;;;;;;10.40;1.85;;;18.50;99.90;;;;;;4145581;28;20524;-47
2022/06/28 02:51:38;;;;;;;15.68;2.40;;;18.50;99.90;;;;;;4149313;28;20584;-49
2022/06/28 02:54:00;;;;;;;8.93;1.88;;;18.20;99.90;;;;;;4144967;28;20052;-46
2022/06/28 02:56:21;;;;;;;11.38;2.25;;;17.90;99.90;;;;;;4144721;28;20077;-50
2022/06/28 02:58:42;;;;;;;5.90;2.17;;;17.60;99.90;;;;;;4144566;28;20429;-49
2022/06/28 03:01:03;;;;;;;18.40;2.08;;;17.40;99.90;;;;;;4144744;28;20213;-48
2022/06/28 03:03:24;;;;;;;11.93;2.45;;;17.30;99.90;;;;;;4145174;28;20056;-48
2022/06/28 03:05:45;;;;;;;12.63;1.92;;;17.20;99.90;;;;;;4144762;28;20050;-49
2022/06/28 03:08:05;;;;;;;12.10;1.95;;;17.20;99.90;;;;;;4154233;28;20056;-47
2022/06/28 03:10:26;;;;;;;9.73;2.67;;;17.20;99.90;;;;;;4151521;28;20051;-50
2022/06/28 03:12:47;;;;;;;11.95;2.63;;;17.10;99.90;;;;;;4144470;28;20100;-47
2022/06/28 03:15:09;;;;;;;8.52;1.58;;;17.20;99.90;;;;;;4144907;28;20112;-48
2022/06/28 03:17:29;;;;;;;8.70;2.78;;;17.20;99.90;;;;;;4150038;28;20575;-47
2022/06/28 03:19:50;;;;;;;14.07;2.35;;;17.20;99.90;;;;;;4152685;28;20065;-47
2022/06/28 03:22:11;;;;;;;12.60;1.80;;;17.20;99.90;;;;;;4144376;28;20068;-46
2022/06/28 03:24:33;;;;;;;13.48;2.30;;;17.30;99.90;;;;;;4144629;28;20053;-47
2022/06/28 03:26:53;;;;;;;13.38;1.60;;;17.30;99.90;;;;;;4146691;28;20092;-49
2022/06/28 03:29:13;;;;;;;12.75;2.38;;;17.20;99.90;;;;;;4144461;28;20057;-50
2022/06/28 03:31:34;;;;;;;10.77;1.52;;;17.50;99.90;;;;;;4144281;28;20129;-50
2022/06/28 03:33:55;;;;;;;13.68;2.83;;;17.70;99.90;;;;;;4144511;28;20076;-49
2022/06/28 03:36:15;;;;;;;13.10;2.65;;;17.60;99.90;;;;;;4144647;28;20524;-46
2022/06/28 03:38:36;;;;;;;9.23;2.10;;;17.70;99.90;;;;;;4144591;28;20084;-49
2022/06/28 03:40:57;;;;;;;14.25;2.85;;;17.70;99.90;;;;;;4144445;28;20080;-47
2022/06/28 03:43:18;;;;;;;12.18;1.90;;;17.70;99.90;;;;;;4148996;28;20126;-46
2022/06/28 03:45:38;;;;;;;7.80;2.72;;;17.70;99.90;;;;;;4150417;28;20064;-49
2022/06/28 03:47:59;;;;;;;9.18;2.47;;;17.60;99.90;;;;;;4143988;28;20449;-47
2022/06/28 03:50:19;;;;;;;11.40;3.00;;;17.50;99.90;;;;;;4154332;28;20060;-47
2022/06/28 03:52:40;;;;;;;11.73;3.30;;;17.50;99.90;;;;;;4144509;28;20120;-48
2022/06/28 03:55:03;;;;;;;13.45;2.95;;;17.40;99.90;;;;;;4144255;28;20061;-50
2022/06/28 03:57:24;;;;;;;5.10;1.70;;;17.30;99.90;;;;;;4143117;28;20161;-49
2022/06/28 03:59:45;;;;;;;11.70;2.65;;;17.20;99.90;;;;;;4144561;28;20061;-48
2022/06/28 04:02:06;;;;;;;16.23;3.65;;;17.00;99.90;;;;;;4147226;28;20049;-48
2022/06/28 04:04:27;;;;;;;10.57;2.50;;;16.90;99.90;;;;;;4147708;28;20084;-47
2022/06/28 04:06:48;;;;;;;4.57;1.80;;;16.70;99.90;;;;;;4147477;28;20068;-46
2022/06/28 04:09:09;;;;;;;13.73;3.45;;;16.60;99.90;;;;;;4147161;28;20061;-48
2022/06/28 04:11:29;;;;;;;11.38;2.70;;;16.50;99.90;;;;;;4154028;28;20417;-48
2022/06/28 04:13:53;;;;;;;12.75;2.70;;;16.50;99.90;;;;;;4157215;28;20049;-48
2022/06/28 04:16:14;;;;;;;13.13;4.47;;;16.60;99.90;;;;;;4147411;28;20131;-49
2022/06/28 04:18:35;;;;;;;11.63;3.20;;;16.60;99.90;;;;;;4161671;28;20216;-48
2022/06/28 04:20:57;;;;;;;8.98;2.67;;;16.90;99.90;;;;;;4152362;28;20127;-48
2022/06/28 04:23:18;;;;;;;15.82;2.05;;;17.00;99.90;;;;;;4147225;28;20056;-46
2022/06/28 04:25:41;;;;;;;13.23;2.70;;;17.10;99.90;;;;;;4158454;28;20526;-48
2022/06/28 04:28:02;;;;;;;12.77;3.78;;;17.10;99.90;;;;;;4147878;28;20076;-47
2022/06/28 04:30:25;;;;;;;6.90;1.83;;;17.00;99.90;;;;;;4146979;28;20138;-48
2022/06/28 04:32:48;;;;;;;9.90;2.72;;;17.00;99.90;;;;;;4146836;28;20044;-48
2022/06/28 04:35:09;;;;;;;18.55;2.90;;;17.00;99.90;;;;;;4147048;28;20080;-48
2022/06/28 04:37:30;;;;;;;12.82;2.72;;;17.00;99.90;;;;;;4146941;28;20076;-47
2022/06/28 04:39:51;;;;;;;8.75;1.88;;;17.00;99.90;;;;;;4146802;28;20084;-48
2022/06/28 04:42:12;;;;;;;12.02;3.13;;;17.10;99.90;;;;;;4147165;28;20048;-47
2022/06/28 04:44:33;;;;;;;11.85;2.20;;;17.20;99.90;;;;;;4161545;28;20071;-49
2022/06/28 04:46:57;;;;;;;8.23;2.10;;;17.30;99.90;;;;;;4147454;28;20053;-50
2022/06/28 04:49:18;;;;;;;10.32;2.15;;;17.40;99.90;;;;;;4148186;28;20057;-47
2022/06/28 04:51:39;;;;;;;12.10;3.95;;;17.30;99.90;;;;;;4160924;28;20060;-50
2022/06/28 04:53:59;;;;;;;12.45;2.72;;;17.20;99.90;;;;;;4146550;28;20104;-46
2022/06/28 04:56:21;;;;;;;13.50;2.35;;;17.30;99.90;;;;;;4146256;28;20057;-48
2022/06/28 04:58:42;;;;;;;14.75;3.40;;;17.30;99.90;;;;;;4146149;28;20065;-46
2022/06/28 05:01:02;;;;;;;8.10;2.13;;;17.40;99.90;;;;;;4146657;28;20593;-47
2022/06/28 05:03:33;;;;;;;10.50;2.95;;;17.60;99.90;;;;;;4146396;28;20629;-48
2022/06/28 05:05:54;;;;;;;15.85;3.15;;;17.80;99.90;;;;;;4146040;28;20621;-48
2022/06/28 05:08:15;;;;;;;10.77;2.50;;;17.80;99.90;;;;;;4150189;28;20088;-49
2022/06/28 05:10:35;;;;;;;13.55;2.38;;;17.90;99.90;;;;;;4157483;28;20245;-47
2022/06/28 05:12:56;;;;;;;10.65;1.83;;;17.90;99.90;;;;;;4160732;28;20445;-47
2022/06/28 05:15:17;;;;;;;6.20;2.22;;;17.90;99.90;;;;;;4146294;28;20564;-50
2022/06/28 05:17:37;;;;;;;8.55;2.72;;;17.90;99.90;;;;;;4147291;28;20147;-48
2022/06/28 05:19:58;;;;;;;11.27;3.67;;;17.80;99.90;;;;;;4162861;28;20060;-49
2022/06/28 05:22:18;;;;;;;15.70;3.50;;;17.90;99.90;;;;;;4145373;28;20080;-47
2022/06/28 05:24:40;;;;;;;7.35;1.50;;;17.90;99.90;;;;;;4145632;28;20061;-47
2022/06/28 05:27:01;;;;;;;12.98;2.45;;;17.90;99.90;;;;;;4146138;28;20096;-46
2022/06/28 05:29:22;;;;;;;10.98;2.83;;;17.70;99.90;;;;;;4146070;28;20060;-49
2022/06/28 05:31:43;;;;;;;11.60;3.80;;;17.70;99.90;;;;;;4145799;28;20133;-47
2022/06/28 05:34:04;;;;;;;12.98;3.42;;;17.60;99.90;;;;;;4145572;28;20057;-46
2022/06/28 05:36:25;;;;;;;15.95;3.92;;;17.60;99.90;;;;;;4146525;28;20096;-47
2022/06/28 05:38:46;;;;;;;11.85;2.70;;;17.70;99.90;;;;;;4145636;28;20131;-49
2022/06/28 05:41:07;;;;;;;13.60;3.72;;;17.80;99.90;;;;;;4145559;28;20060;-47
2022/06/28 05:43:27;;;;;;;11.68;3.47;;;17.70;99.90;;;;;;4150757;28;20111;-47
2022/06/28 05:45:48;;;;;;;19.85;3.88;;;17.60;99.90;;;;;;4160505;28;20057;-49
2022/06/28 05:48:08;;;;;;;23.83;3.38;;;17.60;99.90;;;;;;4145797;28;20141;-47
2022/06/28 05:50:29;;;;;;;14.73;2.38;;;17.80;99.90;;;;;;4157465;28;20127;-46
2022/06/28 05:52:51;;;;;;;10.80;2.03;;;18.00;99.90;;;;;;4154094;28;20547;-49
2022/06/28 05:55:12;;;;;;;12.70;2.72;;;18.30;99.90;;;;;;4145851;28;20048;-47
2022/06/28 05:57:33;;;;;;;17.25;2.25;;;18.60;99.90;;;;;;4145908;28;20057;-47
2022/06/28 05:59:54;;;;;;;13.02;2.50;;;18.80;99.90;;;;;;4145469;28;20589;-46
2022/06/28 06:02:15;;;;;;;16.83;3.15;;;18.90;99.90;;;;;;4145456;28;20052;-49
2022/06/28 06:04:36;;;;;;;15.50;2.83;;;19.00;99.90;;;;;;4145914;28;20052;-49
2022/06/28 06:06:57;;;;;;;11.13;2.13;;;19.20;99.90;;;;;;4146011;28;20412;-47
2022/06/28 06:09:18;;;;;;;13.10;2.85;;;19.40;99.90;;;;;;4150402;28;20052;-48
2022/06/28 06:11:39;;;;;;;22.88;3.92;;;19.70;99.90;;;;;;4149587;28;20143;-47
2022/06/28 06:14:00;;;;;;;10.07;2.72;;;19.80;99.90;;;;;;4147412;28;20049;-47
2022/06/28 06:16:21;;;;;;;13.77;2.22;;;19.90;99.90;;;;;;4145630;28;20149;-49
2022/06/28 06:18:42;;;;;;;13.00;2.38;;;20.10;99.90;;;;;;4150670;28;20080;-46
2022/06/28 06:21:03;;;;;;;9.20;2.70;;;20.40;99.90;;;;;;4145043;28;20560;-48
2022/06/28 06:23:24;;;;;;;13.73;1.88;;;20.60;99.90;;;;;;4145220;28;20541;-50
2022/06/28 06:25:45;;;;;;;13.40;2.40;;;20.90;99.90;;;;;;4144964;28;20060;-47
2022/06/28 06:28:06;;;;;;;15.45;2.60;;;21.10;99.90;;;;;;4145454;28;20413;-46
2022/06/28 06:30:28;;;;;;;10.30;2.85;;;21.00;99.90;;;;;;4145391;28;20050;-48
2022/06/28 06:32:50;;;;;;;12.73;2.28;;;21.00;99.90;;;;;;4145711;28;20052;-48
2022/06/28 06:35:11;;;;;;;12.85;1.83;;;21.20;99.90;;;;;;4145269;28;20546;-46
2022/06/28 06:37:34;;;;;;;12.13;2.00;;;21.20;99.90;;;;;;4145009;28;20095;-46
2022/06/28 06:39:55;;;;;;;13.25;2.03;;;21.20;99.90;;;;;;4144936;28;20116;-48
2022/06/28 06:42:16;;;;;;;18.60;2.00;;;21.50;99.90;;;;;;4145278;28;20053;-48
2022/06/28 06:44:37;;;;;;;18.23;3.25;;;21.60;99.90;;;;;;4147472;28;20056;-46
2022/06/28 06:46:57;;;;;;;15.52;2.58;;;21.90;99.90;;;;;;4145378;28;20142;-47
2022/06/28 06:49:18;;;;;;;10.40;2.05;;;21.90;99.90;;;;;;4146480;28;20056;-47
2022/06/28 06:51:41;;;;;;;13.27;2.25;;;22.00;99.90;;;;;;4144166;28;20516;-47
2022/06/28 06:54:02;;;;;;;8.93;1.85;;;22.00;99.90;;;;;;4143511;28;20112;-48
2022/06/28 06:56:22;;;;;;;19.65;2.30;;;22.30;99.90;;;;;;4144674;28;20077;-47
2022/06/28 06:58:43;;;;;;;15.07;1.60;;;22.50;99.90;;;;;;4145023;28;20099;-47
2022/06/28 07:01:04;;;;;;;12.73;1.85;;;22.50;99.90;;;;;;4145064;28;20539;-49
2022/06/28 07:03:45;;;;;;;15.80;2.28;;;22.50;99.90;;;;;;4144078;28;20543;-49
2022/06/28 07:06:06;;;;;;;15.15;2.78;;;22.50;99.90;;;;;;4144583;28;20125;-46
2022/06/28 07:08:27;;;;;;;18.20;2.55;;;22.40;99.90;;;;;;4157418;28;20056;-46
2022/06/28 07:10:48;;;;;;;9.30;3.15;;;22.30;99.90;;;;;;4151465;28;20081;-47
2022/06/28 07:13:09;;;;;;;13.77;3.25;;;22.50;99.90;;;;;;4148242;28;20108;-46
2022/06/28 07:15:29;;;;;;;12.02;2.53;;;22.70;99.90;;;;;;4144879;28;20079;-48
2022/06/28 07:17:51;;;;;;;11.15;3.10;;;22.70;99.90;;;;;;4153075;28;20052;-47
2022/06/28 07:20:12;;;;;;;10.38;2.40;;;22.50;99.90;;;;;;4143182;28;20057;-47
2022/06/28 07:22:33;;;;;;;13.80;1.92;;;22.70;99.90;;;;;;4144227;28;20143;-46
2022/06/28 07:24:53;;;;;;;15.50;2.20;;;22.80;99.90;;;;;;4144500;28;20172;-49
2022/06/28 07:27:14;;;;;;;11.27;2.22;;;22.90;99.90;;;;;;4144443;28;20061;-46
2022/06/28 07:29:35;;;;;;;14.07;2.35;;;23.10;99.90;;;;;;4143400;28;20108;-48
2022/06/28 07:31:56;;;;;;;16.80;2.60;;;23.20;99.90;;;;;;4144548;28;20509;-48
2022/06/28 07:34:17;;;;;;;21.83;2.20;;;23.40;99.90;;;;;;4144423;28;20089;-47
2022/06/28 07:36:38;;;;;;;17.13;2.28;;;23.30;99.90;;;;;;4144018;28;20100;-48
2022/06/28 07:38:59;;;;;;;11.05;1.77;;;23.50;99.90;;;;;;4144147;28;20446;-47
2022/06/28 07:41:24;;;;;;;13.38;2.10;;;23.40;99.90;;;;;;4144418;28;20060;-46
2022/06/28 07:43:45;;;;;;;23.67;3.63;;;23.50;99.90;;;;;;4151551;28;20437;-48
2022/06/28 07:46:06;;;;;;;19.90;1.73;;;23.60;99.90;;;;;;4144927;28;20130;-48
2022/06/28 07:48:28;;;;;;;12.73;2.30;;;23.60;99.90;;;;;;4144201;28;20141;-48
2022/06/28 07:53:28;;;;;;;11.63;1.83;;;23.80;99.90;;;;;;4144354;28;20645;-47
2022/06/28 07:55:49;;;;;;;16.73;2.78;;;23.80;99.90;;;;;;4144475;28;20057;-49
2022/06/28 07:58:16;;;;;;;19.45;2.80;;;23.80;99.90;;;;;;4144099;28;20438;-48
2022/06/28 08:00:37;;;;;;;11.95;2.08;;;24.00;99.90;;;;;;4144260;28;20053;-47
2022/06/28 08:02:58;;;;;;;16.63;1.80;;;24.10;99.90;;;;;;4144094;28;20061;-46
2022/06/28 08:05:19;;;;;;;18.50;2.38;;;24.10;99.90;;;;;;4144217;28;20974;-47
2022/06/28 08:07:40;;;;;;;21.20;2.85;;;24.00;99.90;;;;;;4156316;28;20148;-47
2022/06/28 08:10:01;;;;;;;12.25;2.60;;;24.10;99.90;;;;;;4153159;28;20068;-46
2022/06/28 08:12:21;;;;;;;20.65;2.50;;;24.30;99.90;;;;;;4144160;28;20096;-46
2022/06/28 08:14:42;;;;;;;20.55;2.60;;;24.40;99.90;;;;;;4144377;28;20049;-45
2022/06/28 08:17:04;;;;;;;17.10;3.85;;;24.40;99.90;;;;;;4145841;28;20433;-48
2022/06/28 08:19:25;;;;;;;22.10;4.40;;;24.40;99.90;;;;;;4154723;28;20354;-47
2022/06/28 08:21:47;;;;;;;16.42;2.15;;;24.30;99.90;;;;;;4144171;28;20127;-45
2022/06/28 08:24:09;;;;;;;9.43;1.98;;;24.60;99.90;;;;;;4144313;28;20133;-46
2022/06/28 08:26:30;;;;;;;20.40;3.17;;;24.60;99.90;;;;;;4143687;28;20112;-45
2022/06/28 08:28:51;;;;;;;15.75;2.90;;;24.70;99.90;;;;;;4143798;28;20064;-46
2022/06/28 08:31:12;;;;;;;18.15;1.70;;;24.60;99.90;;;;;;4143791;28;20052;-47
2022/06/28 08:33:33;;;;;;;16.02;2.38;;;24.60;99.90;;;;;;4144272;28;20100;-46
2022/06/28 08:35:54;;;;;;;21.67;3.42;;;24.60;99.90;;;;;;4143938;28;20095;-47
2022/06/28 08:38:14;;;;;;;12.65;1.98;;;24.50;99.90;;;;;;4143848;28;20127;-47
2022/06/28 08:40:35;;;;;;;19.60;2.47;;;24.40;99.90;;;;;;4144505;28;20052;-47
2022/06/28 08:42:58;;;;;;;15.48;1.85;;;24.40;99.90;;;;;;4145923;28;20048;-49
2022/06/28 08:45:25;;;;;;;15.15;2.85;;;24.40;99.90;;;;;;4150562;28;20337;-47
2022/06/28 08:47:47;;;;;;;14.95;2.10;;;24.50;99.90;;;;;;4145414;28;20061;-48
2022/06/28 08:50:17;;;;;;;18.85;2.72;;;24.70;99.90;;;;;;4155671;28;20111;-47
2022/06/28 08:52:39;;;;;;;19.75;2.10;;;24.70;99.90;;;;;;4146314;28;20441;-46
2022/06/28 08:55:02;;;;;;;14.50;1.83;;;24.70;99.90;;;;;;4147006;28;20061;-49
2022/06/28 08:57:32;;;;;;;22.35;1.95;;;24.80;99.90;;;;;;4146590;28;20127;-49
2022/06/28 08:59:53;;;;;;;13.93;1.80;;;25.00;99.90;;;;;;4147136;28;20052;-47
2022/06/28 09:02:15;;;;;;;13.32;2.33;;;25.10;99.90;;;;;;4146597;28;20532;-47
2022/06/28 09:04:36;;;;;;;21.30;1.95;;;25.30;99.90;;;;;;4146520;28;20397;-46
2022/06/28 09:06:58;;;;;;;11.70;2.20;;;25.30;99.90;;;;;;4147172;28;20527;-48
2022/06/28 09:09:19;;;;;;;17.00;2.17;;;25.30;99.90;;;;;;4162845;28;20136;-48
2022/06/28 09:11:43;;;;;;;14.80;3.28;;;25.40;99.90;;;;;;4155483;28;20059;-47
2022/06/28 09:14:20;;;;;;;20.08;2.47;;;25.60;99.90;;;;;;4153745;28;20532;-50
2022/06/28 09:16:40;;;;;;;14.90;1.50;;;25.60;99.90;;;;;;4146450;28;20052;-47
2022/06/28 09:19:01;;;;;;;15.65;2.03;;;25.50;99.90;;;;;;4146338;28;20104;-46
2022/06/28 09:21:22;;;;;;;13.45;3.08;;;25.40;99.90;;;;;;4146948;28;20127;-49
2022/06/28 09:23:49;;;;;;;20.40;3.28;;;25.50;99.90;;;;;;4146254;28;20441;-47
2022/06/28 09:26:13;;;;;;;16.65;2.38;;;25.70;99.90;;;;;;4146264;28;20049;-49
2022/06/28 09:28:41;;;;;;;14.38;1.88;;;25.70;99.90;;;;;;4146089;28;20052;-47
2022/06/28 09:31:21;;;;;;;25.23;2.75;;;25.50;99.90;;;;;;4146370;28;20124;-49
2022/06/28 09:33:44;;;;;;;15.73;2.63;;;25.50;99.90;;;;;;4145134;28;20157;-45
2022/06/28 09:36:05;;;;;;;13.45;1.65;;;25.60;99.90;;;;;;4146642;28;20572;-47
2022/06/28 09:38:32;;;;;;;17.58;1.95;;;25.50;99.90;;;;;;4145624;28;20052;-47
2022/06/28 09:40:54;;;;;;;20.13;2.33;;;25.80;99.90;;;;;;4146922;28;20057;-45
2022/06/28 09:43:15;;;;;;;16.85;2.53;;;26.00;99.90;;;;;;4150046;28;20512;-47
2022/06/28 09:45:38;;;;;;;21.42;2.03;;;26.10;99.90;;;;;;4156269;28;20125;-46
2022/06/28 09:47:59;;;;;;;19.30;1.95;;;26.20;99.90;;;;;;4148858;28;20061;-46
2022/06/28 09:50:25;;;;;;;22.55;2.10;;;26.30;99.90;;;;;;4146628;28;20061;-46
2022/06/28 09:52:46;;;;;;;20.77;1.73;;;26.40;99.90;;;;;;4150547;28;20427;-49
2022/06/28 09:55:08;;;;;;;22.33;2.65;;;26.60;99.90;;;;;;4155519;28;20100;-47
2022/06/28 09:57:31;;;;;;;19.85;2.88;;;26.70;99.90;;;;;;4145855;28;20044;-48
2022/06/28 09:59:54;;;;;;;18.95;2.53;;;26.80;99.90;;;;;;4155079;28;20048;-46
2022/06/28 10:02:16;;;;;;;21.10;2.15;;;26.80;99.90;;;;;;4151369;28;20053;-47
2022/06/28 10:04:37;;;;;;;22.17;1.85;;;26.80;99.90;;;;;;4145968;28;20155;-49
2022/06/28 10:07:09;;;;;;;12.70;1.67;;;26.70;99.90;;;;;;4147350;28;20100;-49
2022/06/28 10:09:31;;;;;;;20.73;2.20;;;26.70;99.90;;;;;;4144467;28;20129;-49
2022/06/28 10:17:40;;;;;;;19.23;3.17;;;26.10;99.90;;;;;;4159432;28;20125;-46
2022/06/28 10:20:09;;;;;;;20.55;2.83;;;25.60;99.90;;;;;;4157465;28;20107;-47
2022/06/28 10:22:30;;;;;;;16.05;2.05;;;25.40;99.90;;;;;;4152160;28;20052;-46
2022/06/28 10:24:59;;;;;;;28.02;2.70;;;25.50;99.90;;;;;;4155504;28;20052;-48
2022/06/28 10:27:21;;;;;;;13.57;1.67;;;25.60;99.90;;;;;;4147319;28;20097;-46
2022/06/28 10:30:00;;;;;;;20.00;3.85;;;25.50;99.90;;;;;;4144103;28;20120;-48
2022/06/28 10:33:07;;;;;;;19.95;2.75;;;25.50;99.90;;;;;;4145367;28;20053;-47
2022/06/28 10:35:31;;;;;;;23.85;2.60;;;25.50;99.90;;;;;;4148091;28;20539;-49
2022/06/28 10:38:11;;;;;;;19.50;3.35;;;25.50;99.90;;;;;;4150192;28;20052;-50
2022/06/28 10:40:32;;;;;;;21.08;2.72;;;25.60;99.90;;;;;;4144865;28;20418;-48
2022/06/28 10:42:54;;;;;;;22.75;3.08;;;25.70;99.90;;;;;;4155023;28;20048;-46
2022/06/28 10:45:15;;;;;;;27.50;3.60;;;25.80;99.90;;;;;;4156445;28;20107;-50
2022/06/28 10:47:36;;;;;;;15.35;2.00;;;25.70;99.90;;;;;;4156077;28;20064;-46
2022/06/28 10:50:00;;;;;;;15.40;2.15;;;25.50;99.90;;;;;;4146792;28;20064;-46
2022/06/28 10:52:24;;;;;;;21.13;2.60;;;25.30;99.90;;;;;;4144338;28;20064;-47
2022/06/28 10:54:56;;;;;;;25.33;2.85;;;25.20;99.90;;;;;;4145246;28;20052;-49
2022/06/28 10:57:22;;;;;;;21.33;2.35;;;25.20;99.90;;;;;;4150290;28;20048;-46
2022/06/28 10:59:47;;;;;;;15.40;2.65;;;25.10;99.90;;;;;;4144500;28;20623;-48
2022/06/28 11:02:08;;;;;;;19.30;2.05;;;25.20;99.90;;;;;;4144586;28;20103;-48
2022/06/28 11:04:30;;;;;;;22.70;2.63;;;25.20;99.90;;;;;;4145037;28;20073;-47
2022/06/28 11:06:51;;;;;;;;;;;25.40;99.90;;;;;;4150187;28;20103;-49
2022/06/28 11:09:36;;;;;;;23.55;2.88;;;25.60;99.90;;;;;;4156362;28;19927;-46
2022/06/28 11:12:18;;;;;;;20.02;2.47;;;25.70;99.90;;;;;;4152527;28;20568;-47
2022/06/28 11:14:50;;;;;;;9.10;2.00;;;25.90;99.90;;;;;;4144538;28;20115;-49
2022/06/28 11:17:22;;;;;;;21.77;2.97;;;26.10;99.90;;;;;;4148147;28;20099;-47
2022/06/28 11:19:53;;;;;;;;;;;26.40;99.90;;;;;;4144735;28;20076;-46
2022/06/28 11:22:14;;;;;;;16.27;2.17;;;26.60;99.90;;;;;;4144429;28;20399;-46
2022/06/28 11:24:43;;;;;;;24.52;3.88;;;26.80;99.90;;;;;;4144304;28;20093;-46
2022/06/28 11:27:20;;;;;;;21.38;2.45;;;26.90;99.90;;;;;;4145311;28;20107;-47
2022/06/28 11:29:40;;;;;;;19.98;1.98;;;27.00;99.90;;;;;;4153312;28;20060;-46
2022/06/28 11:32:13;;;;;;;14.52;1.80;;;27.10;99.90;;;;;;4144467;28;20061;-47
2022/06/28 11:34:34;;;;;;;18.83;2.38;;;27.20;99.90;;;;;;4146394;28;20169;-49
2022/06/28 11:36:56;;;;;;;20.58;2.03;;;27.30;99.80;;;;;;4153507;28;20571;-47
2022/06/28 11:39:18;;;;;;;19.83;3.28;;;27.30;99.80;;;;;;4144216;28;20104;-49
2022/06/28 11:41:53;;;;;;;21.05;2.80;;;27.40;98.10;;;;;;4147878;28;20875;-48
2022/06/28 11:44:17;;;;;;;18.75;2.65;;;27.50;97.40;;;;;;4147777;28;20048;-48
2022/06/28 11:46:39;;;;;;;18.15;3.03;;;27.60;97.50;;;;;;4149554;28;20477;-49
2022/06/28 11:49:00;;;;;;;22.83;2.20;;;27.70;97.00;;;;;;4148972;28;20091;-50
2022/06/28 11:51:31;;;;;;;19.88;2.55;;;27.60;96.70;;;;;;4145297;28;20355;-49
2022/06/28 11:53:52;;;;;;;33.58;2.78;;;27.70;97.80;;;;;;4160498;28;20044;-47
2022/06/28 11:56:13;;;;;;;18.75;2.03;;;27.70;96.60;;;;;;4154895;28;20053;-50
2022/06/28 11:58:38;;;;;;;13.48;2.22;;;27.70;95.80;;;;;;4151213;28;20055;-49
2022/06/28 12:01:08;;;;;;;26.95;1.77;;;27.60;96.80;;;;;;4144516;28;20076;-51
2022/06/28 12:03:29;;;;;;;15.63;2.92;;;27.40;97.40;;;;;;4144439;28;20416;-49
2022/06/28 12:05:54;;;;;;;26.77;2.90;;;27.40;96.90;;;;;;4144170;28;20528;-50
2022/06/28 12:08:15;;;;;;;17.90;2.08;;;27.30;97.50;;;;;;4155362;28;20152;-50
2022/06/28 12:10:35;;;;;;;23.20;2.33;;;27.40;97.30;;;;;;4143823;28;20527;-49
2022/06/28 12:12:58;;;;;;;24.98;2.28;;;27.50;97.40;;;;;;4143920;28;20475;-47
2022/06/28 12:15:32;;;;;;;32.95;2.55;;;27.60;97.90;;;;;;4144166;28;20532;-49
2022/06/28 12:17:59;;;;;;;13.75;1.65;;;27.70;97.60;;;;;;4152424;28;20156;-50
2022/06/28 12:20:19;;;;;;;15.45;1.60;;;27.80;97.80;;;;;;4144112;28;20112;-47
2022/06/28 12:22:40;;;;;;;16.80;1.40;;;27.80;96.50;;;;;;4159346;28;20207;-50
2022/06/28 12:25:11;;;;;;;10.15;1.33;;;27.80;96.40;;;;;;4157939;28;20436;-49
2022/06/28 12:27:34;;;;;;;13.45;1.00;;;27.70;96.50;;;;;;4154913;28;20069;-47
2022/06/28 12:29:56;;;;;;;20.00;1.85;;;27.70;97.20;;;;;;4146963;28;20108;-50
2022/06/28 12:32:19;;;;;;;16.05;1.42;;;27.70;96.60;;;;;;4147900;28;20044;-49